Terminal Aerodrome Forecast
Issued by NWS

Home | Current Version | Previous Version | Text Only | Print | Product List | Glossary On
Versions: 1 2 3 4 5 6 7 8 9 10 11 12 13
127
FTAK31 PAJN 072323
TAFASI
TAF
PASI 072323Z 0800/0824 15010KT P6SM VCSH FEW020 BKN030 OVC040
     FM080400 VRB06KT P6SM FEW025 OVC050
     FM082000 07010KT 6SM -RA BR FEW015 OVC030=

USA.gov is the U.S. government's official web portal to all federal, state and local government web resources and services.